createdAt,value
2022-08-20T00:01:32.477Z,63.19
2022-08-20T00:06:54.232Z,63.72
2022-08-20T00:12:16.685Z,63.73
2022-08-20T00:17:39.479Z,64.32
2022-08-20T00:23:01.818Z,64.52
2022-08-20T00:28:23.537Z,64.54
2022-08-20T00:33:45.876Z,64.60
2022-08-20T00:39:07.644Z,65.19
2022-08-20T00:44:30.111Z,65.11
2022-08-20T00:49:51.829Z,65.02
2022-08-20T00:55:14.529Z,65.02
2022-08-20T01:00:40.607Z,64.90
2022-08-20T01:06:02.416Z,64.90
2022-08-20T01:11:37.214Z,65.00
2022-08-20T01:17:04.091Z,65.04
2022-08-20T01:23:29.725Z,64.95
2022-08-20T01:28:56.326Z,65.46
2022-08-20T01:34:20.630Z,65.33
2022-08-20T01:39:42.493Z,65.63
2022-08-20T01:45:06.330Z,66.12
2022-08-20T01:50:32.200Z,66.35
2022-08-20T01:55:55.293Z,66.09
2022-08-20T02:01:28.562Z,65.91
2022-08-20T02:07:00.216Z,65.75
2022-08-20T02:12:21.991Z,66.19
2022-08-20T02:17:43.887Z,66.27
2022-08-20T02:23:07.569Z,66.70
2022-08-20T02:28:29.934Z,66.26
2022-08-20T02:34:21.599Z,66.66
2022-08-20T02:39:34.430Z,66.55
2022-08-20T02:44:58.516Z,66.45
2022-08-20T02:50:21.015Z,66.96
2022-08-20T02:55:43.255Z,67.06
2022-08-20T03:01:07.875Z,67.24
2022-08-20T03:06:30.274Z,67.14
2022-08-20T03:11:52.800Z,67.32
2022-08-20T03:17:14.573Z,67.10
2022-08-20T03:22:36.341Z,66.95
2022-08-20T03:27:58.364Z,67.28
2022-08-20T03:33:20.918Z,67.17
2022-08-20T03:38:42.703Z,67.19
2022-08-20T03:44:06.869Z,68.06
2022-08-20T03:49:28.830Z,67.50
2022-08-20T03:54:50.574Z,67.87
2022-08-20T04:00:14.727Z,67.78
2022-08-20T04:05:40.791Z,67.75
2022-08-20T04:11:02.534Z,67.46
2022-08-20T04:16:24.311Z,67.85
2022-08-20T04:21:48.342Z,68.04
2022-08-20T04:27:10.858Z,68.80
2022-08-20T04:32:32.747Z,68.66
2022-08-20T04:38:03.713Z,69.13
2022-08-20T04:43:28.482Z,74.54
2022-08-20T04:48:50.781Z,79.50
2022-08-20T04:54:14.394Z,82.64
2022-08-20T04:59:36.140Z,84.96
2022-08-20T05:04:57.884Z,84.74
2022-08-20T05:10:20.178Z,86.94
2022-08-20T05:15:42.443Z,87.30
2022-08-20T05:21:07.251Z,87.00
2022-08-20T05:26:29.295Z,86.00
2022-08-20T05:31:51.063Z,86.44
2022-08-20T05:37:12.832Z,86.30
2022-08-20T05:42:34.672Z,87.00
2022-08-20T05:47:57.247Z,87.52
2022-08-20T05:53:19.891Z,86.94
2022-08-20T05:58:41.651Z,85.74
2022-08-20T06:04:22.576Z,84.84
2022-08-20T06:09:44.572Z,82.51
2022-08-20T06:15:07.040Z,83.91
2022-08-20T06:20:28.988Z,82.82
2022-08-20T06:25:51.212Z,83.24
2022-08-20T06:31:13.133Z,82.96
2022-08-20T06:36:34.924Z,82.48
2022-08-20T06:41:58.556Z,82.42
2022-08-20T06:47:21.200Z,81.91
2022-08-20T06:52:52.004Z,81.54
2022-08-20T06:58:36.187Z,80.60
2022-08-20T07:03:59.612Z,80.81
2022-08-20T07:09:24.126Z,79.90
2022-08-20T07:14:45.871Z,77.39
2022-08-20T07:20:14.479Z,79.94
2022-08-20T07:25:36.243Z,78.56
2022-08-20T07:31:17.420Z,79.67
2022-08-20T07:36:43.501Z,77.70
2022-08-20T07:42:07.239Z,77.65
2022-08-20T07:47:29.008Z,76.99
2022-08-20T07:52:54.472Z,73.92
2022-08-20T07:58:19.749Z,73.16
2022-08-20T08:03:50.371Z,72.78
2022-08-20T08:09:14.639Z,72.33
2022-08-20T08:14:36.539Z,72.78
2022-08-20T08:19:58.603Z,71.79
2022-08-20T08:25:20.533Z,72.86
2022-08-20T08:30:43.848Z,72.07
2022-08-20T08:36:10.404Z,71.57
2022-08-20T08:41:36.030Z,71.60
2022-08-20T08:47:02.791Z,70.19
2022-08-20T08:52:28.595Z,69.25
2022-08-20T08:57:55.165Z,70.22
2022-08-20T09:03:29.807Z,68.37
2022-08-20T09:09:00.959Z,68.24
2022-08-20T09:14:24.868Z,68.80
2022-08-20T09:19:47.399Z,67.27
2022-08-20T09:25:09.471Z,67.60
2022-08-20T09:30:31.532Z,66.81
2022-08-20T09:35:53.373Z,66.99
2022-08-20T09:41:15.116Z,66.00
2022-08-20T09:46:37.159Z,65.22
2022-08-20T09:52:01.233Z,64.42
2022-08-20T09:57:23.575Z,64.91
2022-08-20T10:02:45.792Z,65.45
2022-08-20T10:08:09.853Z,65.84
2022-08-20T10:13:31.600Z,64.46
2022-08-20T10:18:53.584Z,64.35
2022-08-20T10:24:15.318Z,65.21
2022-08-20T10:29:37.103Z,64.43
2022-08-20T10:34:58.887Z,64.55
2022-08-20T10:40:20.829Z,64.97
2022-08-20T10:45:42.622Z,64.12
2022-08-20T10:51:04.766Z,63.58
2022-08-20T10:56:26.527Z,64.04
2022-08-20T11:01:48.352Z,64.75
2022-08-20T11:07:12.451Z,65.03
2022-08-20T11:12:34.573Z,64.08
2022-08-20T11:17:56.972Z,64.21
2022-08-20T11:23:19.070Z,62.95
2022-08-20T11:28:41.009Z,62.03
2022-08-20T11:34:02.770Z,63.05
2022-08-20T11:39:25.230Z,63.16
2022-08-20T11:44:47.023Z,63.24
2022-08-20T11:50:19.510Z,62.38
2022-08-20T11:55:43.477Z,62.96
2022-08-20T12:01:05.356Z,62.61
2022-08-20T12:06:27.202Z,62.94
2022-08-20T12:11:48.960Z,64.09
2022-08-20T12:17:13.976Z,63.66
2022-08-20T12:22:35.865Z,63.15
2022-08-20T12:27:57.638Z,62.07
2022-08-20T12:33:19.442Z,61.67
2022-08-20T12:38:41.204Z,61.58
2022-08-20T12:44:06.971Z,61.62
2022-08-20T12:49:32.583Z,61.79
2022-08-20T12:54:55.665Z,61.98
2022-08-20T13:00:22.539Z,62.00
2022-08-20T13:05:46.129Z,62.27
2022-08-20T13:11:07.911Z,65.33
2022-08-20T13:16:29.730Z,67.26
2022-08-20T13:21:55.109Z,68.88
2022-08-20T13:27:18.608Z,69.70
2022-08-20T13:32:41.072Z,69.17
2022-08-20T13:38:02.871Z,68.81
2022-08-20T13:43:24.605Z,68.59
2022-08-20T13:48:46.413Z,67.88
2022-08-20T13:54:10.817Z,66.66
2022-08-20T13:59:39.980Z,65.95
2022-08-20T14:05:01.718Z,64.73
2022-08-20T14:10:26.900Z,64.95
2022-08-20T14:15:49.115Z,64.79
2022-08-20T14:21:10.842Z,64.85
2022-08-20T14:26:32.609Z,65.57
2022-08-20T14:31:54.360Z,65.17
2022-08-20T14:37:21.885Z,64.03
2022-08-20T14:42:44.239Z,63.08
2022-08-20T14:48:09.590Z,63.10
2022-08-20T14:53:31.354Z,62.86
2022-08-20T14:58:53.093Z,63.24
2022-08-20T15:04:14.828Z,64.39
2022-08-20T15:09:36.742Z,64.21
2022-08-20T15:14:59.700Z,65.32
2022-08-20T15:20:31.715Z,65.61
2022-08-20T15:25:53.555Z,66.96
2022-08-20T15:31:15.308Z,68.74
2022-08-20T15:36:37.132Z,67.99
2022-08-20T15:42:05.044Z,69.33
2022-08-20T15:47:34.090Z,69.50
2022-08-20T15:53:02.023Z,69.91
2022-08-20T15:58:43.734Z,69.93
2022-08-20T16:04:08.363Z,70.50
2022-08-20T16:09:56.232Z,66.27
2022-08-20T16:15:23.625Z,65.10
2022-08-20T16:20:48.805Z,65.03
2022-08-20T16:26:57.761Z,54.43
2022-08-20T16:32:44.796Z,49.10
2022-08-20T16:38:11.025Z,48.62
2022-08-20T16:43:37.773Z,46.78
2022-08-20T16:49:05.661Z,47.78
2022-08-20T16:54:29.456Z,47.10
2022-08-20T17:00:05.498Z,46.89
2022-08-20T17:05:43.095Z,45.11
2022-08-20T17:11:17.263Z,45.49
2022-08-20T17:16:45.613Z,44.50
2022-08-20T17:22:10.225Z,44.45
2022-08-20T17:27:31.895Z,44.99
2022-08-20T17:32:58.859Z,45.05
2022-08-20T17:38:38.022Z,44.44
2022-08-20T17:44:03.368Z,44.13
2022-08-20T17:49:35.624Z,44.86
2022-08-20T17:54:58.047Z,45.91
2022-08-20T18:00:24.965Z,44.73
2022-08-20T18:05:55.180Z,45.54
2022-08-20T18:11:25.189Z,44.92
2022-08-20T18:17:05.351Z,45.59
2022-08-20T18:22:31.552Z,45.81
2022-08-20T18:28:04.555Z,46.56
2022-08-20T18:33:38.839Z,47.17
2022-08-20T18:39:23.089Z,47.53
2022-08-20T18:44:48.618Z,47.43
2022-08-20T18:50:19.763Z,48.04
2022-08-20T18:55:44.804Z,47.58
2022-08-20T19:01:12.207Z,48.03
2022-08-20T19:07:11.076Z,47.97
2022-08-20T19:12:59.172Z,48.53
2022-08-20T19:18:30.541Z,48.44
2022-08-20T19:23:56.331Z,49.27
2022-08-20T19:29:24.553Z,48.61
2022-08-20T19:34:58.522Z,48.79
2022-08-20T19:40:28.596Z,49.22
2022-08-20T19:45:55.559Z,49.34
2022-08-20T19:51:30.501Z,49.31
2022-08-20T19:56:57.170Z,48.59
2022-08-20T20:02:20.514Z,49.37
2022-08-20T20:07:47.133Z,49.20
2022-08-20T20:13:12.701Z,49.29
2022-08-20T20:18:41.653Z,49.39
2022-08-20T20:24:04.560Z,49.43
2022-08-20T20:29:34.746Z,49.91
2022-08-20T20:34:59.683Z,49.30
2022-08-20T20:40:28.387Z,50.04
2022-08-20T20:45:59.094Z,49.69
2022-08-20T20:51:33.231Z,49.74
2022-08-20T20:57:05.273Z,49.79
2022-08-20T21:02:27.022Z,49.70
2022-08-20T21:07:50.817Z,50.10
2022-08-20T21:13:12.790Z,50.15
2022-08-20T21:18:36.598Z,49.53
2022-08-20T21:23:58.393Z,49.38
2022-08-20T21:29:31.703Z,49.57
2022-08-20T21:34:54.253Z,49.71
2022-08-20T21:40:18.114Z,49.28
2022-08-20T21:45:43.566Z,49.56
2022-08-20T21:51:06.161Z,49.91
2022-08-20T21:56:28.925Z,49.88
2022-08-20T22:01:53.981Z,49.73
2022-08-20T22:07:16.580Z,50.21
2022-08-20T22:12:38.368Z,49.91
2022-08-20T22:18:00.109Z,50.37
2022-08-20T22:23:23.498Z,50.45
2022-08-20T22:28:45.460Z,50.35
2022-08-20T22:34:15.136Z,50.94
2022-08-20T22:39:36.929Z,51.33
2022-08-20T22:44:58.706Z,51.40
2022-08-20T22:50:24.021Z,51.78
2022-08-20T22:55:47.447Z,51.95
2022-08-20T23:01:09.271Z,52.00
2022-08-20T23:06:31.872Z,52.69
2022-08-20T23:11:53.729Z,54.50
2022-08-20T23:17:19.012Z,55.55
2022-08-20T23:22:40.782Z,56.01
2022-08-20T23:28:03.428Z,54.89
2022-08-20T23:33:26.134Z,55.17
2022-08-20T23:38:47.907Z,55.46
2022-08-20T23:44:25.401Z,54.80
2022-08-20T23:49:48.900Z,54.30
2022-08-20T23:55:11.627Z,53.97
